Time;durP1;ratioP1;P1;durP2;ratioP2;P2;SDS_P1;SDS_P2;PMS_P1;PMS_P2;Temp;Humidity;BMP_temperature;BMP_pressure;BME280_temperature;BME280_humidity;BME280_pressure;Samples;Min_cycle;Max_cycle;Signal;HPM_P1;HPM_P2
2022/05/04 00:01:02;;;;;;;37.97;17.05;;;9.10;99.90;;;;;;4976231;28;20066;-87
2022/05/04 00:03:28;;;;;;;32.30;14.73;;;9.10;99.90;;;;;;4985289;28;20026;-87
2022/05/04 00:05:54;;;;;;;36.00;14.48;;;9.00;99.90;;;;;;5003099;28;20034;-89
2022/05/04 00:08:19;;;;;;;40.47;14.52;;;8.90;99.90;;;;;;4976208;28;20248;-87
2022/05/04 00:10:45;;;;;;;30.45;14.98;;;8.90;99.90;;;;;;4992318;28;20034;-87
2022/05/04 00:13:11;;;;;;;31.65;14.45;;;8.90;99.90;;;;;;4977037;28;20061;-87
2022/05/04 00:15:37;;;;;;;32.10;15.27;;;8.90;99.90;;;;;;4987780;28;20466;-87
2022/05/04 00:18:03;;;;;;;24.42;13.50;;;8.90;99.90;;;;;;4989705;28;20118;-88
2022/05/04 00:20:29;;;;;;;29.50;13.02;;;8.90;99.90;;;;;;4994147;28;20085;-88
2022/05/04 00:22:55;;;;;;;27.50;13.20;;;8.90;99.90;;;;;;4996312;28;20462;-87
2022/05/04 00:25:20;;;;;;;33.50;15.55;;;8.80;99.90;;;;;;4992636;28;20474;-88
2022/05/04 00:27:46;;;;;;;33.25;14.65;;;8.80;99.90;;;;;;4991092;28;20053;-87
2022/05/04 00:30:12;;;;;;;29.25;13.75;;;8.80;99.90;;;;;;4998862;28;20046;-87
2022/05/04 00:32:37;;;;;;;32.20;13.75;;;8.70;99.90;;;;;;4975905;28;20035;-87
2022/05/04 00:35:04;;;;;;;31.05;13.80;;;8.60;99.90;;;;;;4975688;28;20483;-88
2022/05/04 00:37:31;;;;;;;29.23;12.93;;;8.50;99.90;;;;;;5005605;28;20043;-88
2022/05/04 00:39:57;;;;;;;27.52;13.02;;;8.50;99.90;;;;;;4987636;28;20030;-88
2022/05/04 00:42:23;;;;;;;30.00;12.25;;;8.50;99.90;;;;;;4983543;28;20037;-88
2022/05/04 00:44:49;;;;;;;27.65;13.02;;;8.60;99.90;;;;;;4993432;28;20064;-87
2022/05/04 00:47:17;;;;;;;31.38;14.25;;;8.50;99.90;;;;;;4994738;28;20029;-87
2022/05/04 00:49:46;;;;;;;39.55;11.93;;;8.50;99.90;;;;;;4996614;28;20045;-87
2022/05/04 00:52:13;;;;;;;26.08;11.98;;;8.50;99.90;;;;;;4997075;28;20041;-87
2022/05/04 00:54:42;;;;;;;26.75;11.77;;;8.40;99.90;;;;;;5005378;28;20390;-88
2022/05/04 00:57:08;;;;;;;30.10;13.38;;;8.30;99.90;;;;;;4976742;28;20445;-87
2022/05/04 00:59:36;;;;;;;28.73;13.00;;;8.20;99.90;;;;;;4972383;28;20130;-86
2022/05/04 01:02:02;;;;;;;30.80;13.15;;;8.20;99.90;;;;;;4990818;28;20031;-87
2022/05/04 01:04:28;;;;;;;28.77;12.95;;;8.10;99.90;;;;;;5006878;28;20382;-87
2022/05/04 01:06:54;;;;;;;24.63;13.07;;;8.10;99.90;;;;;;4995289;28;20244;-87
2022/05/04 01:09:20;;;;;;;28.38;13.27;;;8.20;99.90;;;;;;4987255;28;20501;-88
2022/05/04 01:11:46;;;;;;;30.85;13.45;;;8.10;99.90;;;;;;5002122;28;20088;-87
2022/05/04 01:14:13;;;;;;;37.03;14.75;;;8.10;99.90;;;;;;5006305;28;20037;-88
2022/05/04 01:16:42;;;;;;;26.17;13.60;;;8.10;99.90;;;;;;4980791;28;20034;-88
2022/05/04 01:19:08;;;;;;;28.80;13.00;;;8.10;99.90;;;;;;4979985;28;20085;-88
2022/05/04 01:21:34;;;;;;;29.92;13.48;;;8.00;99.90;;;;;;4986461;28;20034;-88
2022/05/04 01:24:01;;;;;;;30.15;12.48;;;8.00;99.90;;;;;;4988284;28;20058;-87
2022/05/04 01:26:27;;;;;;;27.33;13.48;;;7.90;99.90;;;;;;4983350;28;20031;-87
2022/05/04 01:28:53;;;;;;;37.30;15.88;;;7.90;99.90;;;;;;4970099;28;20031;-88
2022/05/04 01:31:19;;;;;;;24.88;12.43;;;8.00;99.90;;;;;;4976064;28;20378;-88
2022/05/04 01:33:45;;;;;;;24.02;11.23;;;7.90;99.90;;;;;;4988788;28;20033;-88
2022/05/04 01:36:11;;;;;;;24.52;11.90;;;8.00;99.90;;;;;;4982554;28;20034;-87
2022/05/04 01:38:36;;;;;;;23.33;11.02;;;8.00;99.90;;;;;;4988418;28;20031;-88
2022/05/04 01:41:03;;;;;;;23.15;11.52;;;7.90;99.90;;;;;;4989393;28;20023;-88
2022/05/04 01:43:29;;;;;;;25.25;12.75;;;7.80;99.90;;;;;;5001487;28;20026;-88
2022/05/04 01:45:55;;;;;;;29.52;12.88;;;7.80;99.90;;;;;;4984033;28;20371;-88
2022/05/04 01:48:21;;;;;;;32.30;13.95;;;7.90;99.90;;;;;;5001059;28;20041;-88
2022/05/04 01:50:46;;;;;;;26.42;13.25;;;7.90;99.90;;;;;;5003238;28;20038;-88
2022/05/04 01:53:12;;;;;;;30.17;14.90;;;8.00;99.90;;;;;;4991281;28;20393;-87
2022/05/04 01:55:40;;;;;;;29.15;12.90;;;8.00;99.90;;;;;;4991289;28;20122;-88
2022/05/04 01:58:07;;;;;;;28.48;12.95;;;8.00;99.90;;;;;;4975958;28;20027;-88
2022/05/04 02:00:32;;;;;;;22.92;11.00;;;8.00;99.90;;;;;;4984206;28;20039;-88
2022/05/04 02:02:59;;;;;;;21.30;10.57;;;8.10;99.90;;;;;;4982329;28;20076;-88
2022/05/04 02:05:25;;;;;;;29.95;12.30;;;8.00;99.90;;;;;;4990095;28;20088;-88
2022/05/04 02:07:51;;;;;;;27.17;12.43;;;8.10;99.90;;;;;;4990133;28;20375;-88
2022/05/04 02:10:16;;;;;;;19.35;10.25;;;8.20;99.90;;;;;;4989719;28;20022;-88
2022/05/04 02:12:43;;;;;;;23.17;11.35;;;8.10;99.90;;;;;;4988190;28;20065;-88
2022/05/04 02:15:10;;;;;;;20.95;11.77;;;8.20;99.90;;;;;;4992040;28;20049;-87
2022/05/04 02:17:37;;;;;;;25.42;12.07;;;8.30;99.90;;;;;;4989019;28;20034;-88
2022/05/04 02:20:04;;;;;;;29.50;13.18;;;8.20;99.90;;;;;;4988265;28;20038;-88
2022/05/04 02:22:30;;;;;;;26.90;12.68;;;8.00;99.90;;;;;;4989698;28;20018;-88
2022/05/04 02:24:56;;;;;;;29.08;13.48;;;8.00;99.90;;;;;;4994200;28;20034;-88
2022/05/04 02:27:22;;;;;;;26.60;13.75;;;8.00;99.90;;;;;;4989811;28;20497;-88
2022/05/04 02:29:48;;;;;;;32.15;14.15;;;8.00;99.90;;;;;;5005976;28;20069;-88
2022/05/04 02:32:14;;;;;;;23.38;13.50;;;7.90;99.90;;;;;;4990799;28;20038;-88
2022/05/04 02:40:11;;;;;;;30.25;13.30;;;8.00;99.90;;;;;;4975997;28;20046;-88
2022/05/04 02:42:38;;;;;;;24.52;12.27;;;8.00;99.90;;;;;;4988834;28;20089;-88
2022/05/04 02:45:07;;;;;;;26.63;12.05;;;8.00;99.90;;;;;;4995138;28;20104;-87
2022/05/04 02:47:32;;;;;;;25.20;9.98;;;8.00;99.90;;;;;;4996243;28;20033;-88
2022/05/04 02:49:58;;;;;;;14.68;7.63;;;7.90;99.90;;;;;;4996978;28;20038;-88
2022/05/04 02:52:24;;;;;;;15.68;7.40;;;7.90;99.90;;;;;;4992505;28;20046;-88
2022/05/04 02:54:49;;;;;;;14.30;8.20;;;7.90;99.90;;;;;;4990894;28;20043;-88
2022/05/04 02:57:15;;;;;;;20.15;9.77;;;7.90;99.90;;;;;;4992844;28;20088;-88
2022/05/04 02:59:40;;;;;;;17.92;8.43;;;7.90;99.90;;;;;;4989086;28;20034;-88
2022/05/04 03:04:51;;;;;;;13.40;8.18;;;7.80;99.90;;;;;;4988893;28;20037;-88
2022/05/04 03:07:16;;;;;;;12.85;7.63;;;7.80;99.90;;;;;;4992520;28;20386;-88
2022/05/04 03:09:42;;;;;;;19.27;9.23;;;7.90;99.90;;;;;;4987345;28;20049;-88
2022/05/04 03:12:08;;;;;;;16.65;8.40;;;7.90;99.90;;;;;;4993287;28;20042;-88
2022/05/04 03:14:34;;;;;;;15.20;8.15;;;7.80;99.90;;;;;;4992955;28;20039;-88
2022/05/04 03:16:59;;;;;;;21.08;11.57;;;7.90;99.90;;;;;;4993248;28;20034;-88
2022/05/04 03:19:25;;;;;;;18.05;9.93;;;7.80;99.90;;;;;;4988644;28;20023;-88
2022/05/04 03:21:52;;;;;;;16.88;10.00;;;7.80;99.90;;;;;;4981365;28;20036;-88
2022/05/04 03:24:18;;;;;;;18.05;9.93;;;7.80;99.90;;;;;;4990446;28;20389;-88
2022/05/04 03:26:44;;;;;;;18.98;10.80;;;7.80;99.90;;;;;;4990252;28;20026;-88
2022/05/04 03:29:10;;;;;;;20.67;10.30;;;7.80;99.90;;;;;;4981615;28;20110;-88
2022/05/04 03:31:37;;;;;;;17.50;10.40;;;7.80;99.90;;;;;;4992772;28;20137;-88
2022/05/04 03:34:03;;;;;;;26.02;10.50;;;7.80;99.90;;;;;;4993274;28;20038;-88
2022/05/04 03:36:29;;;;;;;21.02;10.48;;;7.80;99.90;;;;;;4986471;28;20058;-88
2022/05/04 03:38:55;;;;;;;19.60;9.23;;;7.90;99.90;;;;;;4998275;28;20070;-88
2022/05/04 03:41:21;;;;;;;17.75;9.70;;;8.00;99.90;;;;;;4987798;28;20027;-88
2022/05/04 03:43:47;;;;;;;17.38;9.40;;;8.00;99.90;;;;;;4995338;28;20042;-88
2022/05/04 03:46:20;;;;;;;15.48;9.00;;;8.00;99.90;;;;;;5013320;28;20494;-88
2022/05/04 03:48:49;;;;;;;18.55;9.27;;;8.00;99.90;;;;;;5011452;28;20113;-88
2022/05/04 03:51:18;;;;;;;25.05;10.40;;;7.90;99.90;;;;;;4995312;28;20043;-88
2022/05/04 03:53:45;;;;;;;15.68;10.07;;;8.00;99.90;;;;;;4994083;28;20026;-88
2022/05/04 03:56:11;;;;;;;18.05;10.25;;;8.00;99.90;;;;;;4990478;28;20446;-88
2022/05/04 03:58:37;;;;;;;16.20;9.90;;;8.00;99.90;;;;;;4985057;28;20042;-88
2022/05/04 04:01:06;;;;;;;17.58;9.75;;;8.00;99.90;;;;;;4987904;28;20374;-88
2022/05/04 04:03:32;;;;;;;18.60;9.93;;;8.10;99.90;;;;;;4980616;28;20474;-88
2022/05/04 04:05:58;;;;;;;18.23;9.85;;;8.20;99.90;;;;;;5008961;28;20041;-88
2022/05/04 04:08:24;;;;;;;21.75;11.80;;;8.20;99.90;;;;;;4987025;28;20026;-88
2022/05/04 04:10:50;;;;;;;17.75;9.80;;;8.20;99.90;;;;;;4991832;28;20378;-88
2022/05/04 04:13:16;;;;;;;15.75;9.48;;;8.20;99.90;;;;;;4990744;28;20065;-88
2022/05/04 04:15:42;;;;;;;20.05;10.93;;;8.30;99.90;;;;;;4996365;28;20031;-88
2022/05/04 04:18:08;;;;;;;15.80;9.98;;;8.20;99.90;;;;;;4990849;28;20096;-88
2022/05/04 04:23:19;;;;;;;14.43;9.82;;;8.10;99.90;;;;;;4975019;28;20029;-88
2022/05/04 04:25:45;;;;;;;13.82;8.45;;;8.10;99.90;;;;;;4987409;28;20290;-88
2022/05/04 04:28:10;;;;;;;16.30;9.73;;;8.10;99.90;;;;;;4999161;28;20031;-88
2022/05/04 04:30:39;;;;;;;20.70;10.38;;;8.20;99.90;;;;;;5004272;28;20046;-88
2022/05/04 04:33:06;;;;;;;21.65;10.88;;;8.20;99.90;;;;;;4988907;28;20030;-89
2022/05/04 04:35:35;;;;;;;21.58;11.05;;;8.20;99.90;;;;;;4970432;28;20046;-87
2022/05/04 04:38:01;;;;;;;15.55;9.70;;;8.10;99.90;;;;;;4986643;28;20057;-88
2022/05/04 04:40:27;;;;;;;17.80;10.93;;;8.10;99.90;;;;;;4989949;28;20035;-88
2022/05/04 04:42:53;;;;;;;19.85;11.02;;;8.10;99.90;;;;;;4990626;28;20034;-89
2022/05/04 04:45:19;;;;;;;19.52;11.45;;;8.20;99.90;;;;;;4976090;28;20078;-89
2022/05/04 04:47:46;;;;;;;24.25;12.73;;;8.20;99.90;;;;;;4995091;28;20496;-88
2022/05/04 04:50:11;;;;;;;18.80;11.23;;;8.20;99.90;;;;;;4993227;28;20027;-89
2022/05/04 04:52:37;;;;;;;18.30;11.52;;;8.10;99.90;;;;;;4991401;28;20129;-88
2022/05/04 04:55:04;;;;;;;23.85;11.27;;;8.10;99.90;;;;;;4993987;28;20522;-90
2022/05/04 04:57:29;;;;;;;20.65;11.02;;;8.10;99.90;;;;;;4971666;28;20041;-88
2022/05/04 04:59:55;;;;;;;18.52;10.52;;;8.10;99.90;;;;;;4988654;28;20110;-89
2022/05/04 05:02:21;;;;;;;19.92;10.88;;;8.00;99.90;;;;;;4989826;28;20099;-88
2022/05/04 05:04:46;;;;;;;15.27;9.18;;;8.10;99.90;;;;;;4989443;28;20023;-88
2022/05/04 05:07:12;;;;;;;13.15;8.95;;;8.10;99.90;;;;;;4990248;28;20368;-88
2022/05/04 05:09:38;;;;;;;15.90;10.75;;;8.10;99.90;;;;;;4976661;28;20062;-88
2022/05/04 05:12:04;;;;;;;20.13;11.27;;;8.20;99.90;;;;;;4997252;28;20121;-88
2022/05/04 05:17:13;;;;;;;14.55;9.93;;;8.30;99.90;;;;;;5003619;28;20061;-88
2022/05/04 05:19:39;;;;;;;18.25;9.93;;;8.40;99.90;;;;;;4980987;28;20030;-87
2022/05/04 05:22:05;;;;;;;15.38;9.30;;;8.60;99.90;;;;;;4993372;28;20026;-88
2022/05/04 05:24:31;;;;;;;15.25;10.07;;;8.80;99.90;;;;;;4971639;28;20058;-88
2022/05/04 05:26:56;;;;;;;15.52;9.07;;;8.90;99.90;;;;;;5008708;28;20125;-87
2022/05/04 05:29:22;;;;;;;11.30;7.72;;;8.90;99.90;;;;;;5004995;28;20041;-87
2022/05/04 05:31:47;;;;;;;11.35;8.50;;;9.00;99.90;;;;;;4989614;28;20035;-88
2022/05/04 05:34:13;;;;;;;12.90;8.57;;;9.10;99.90;;;;;;4993849;28;20453;-87
2022/05/04 05:36:39;;;;;;;11.52;8.52;;;9.20;99.90;;;;;;4989842;28;20046;-87
2022/05/04 05:39:05;;;;;;;14.13;9.27;;;9.30;99.90;;;;;;4994979;28;20110;-87
2022/05/04 05:41:31;;;;;;;16.27;8.82;;;9.30;99.90;;;;;;4996614;28;20053;-86
2022/05/04 05:43:56;;;;;;;12.57;9.02;;;9.30;99.90;;;;;;4994833;28;20033;-86
2022/05/04 05:46:22;;;;;;;12.30;8.73;;;9.30;99.90;;;;;;5009788;28;20054;-86
2022/05/04 05:48:48;;;;;;;13.75;8.80;;;9.30;99.90;;;;;;5009164;28;20233;-86
2022/05/04 05:51:13;;;;;;;13.68;8.18;;;9.40;99.90;;;;;;5008468;28;20114;-87
2022/05/04 05:53:39;;;;;;;13.05;8.25;;;9.50;99.90;;;;;;5002566;28;20121;-86
2022/05/04 05:56:05;;;;;;;14.85;8.27;;;9.40;99.90;;;;;;4986093;28;20129;-87
2022/05/04 05:58:31;;;;;;;12.85;8.02;;;9.50;99.90;;;;;;4989923;28;20026;-86
2022/05/04 06:00:56;;;;;;;14.80;9.05;;;9.40;99.90;;;;;;5005756;28;20146;-88
2022/05/04 06:03:22;;;;;;;14.55;8.05;;;9.50;99.90;;;;;;4956340;28;20033;-85
2022/05/04 06:05:48;;;;;;;13.63;8.98;;;9.50;99.90;;;;;;4992929;28;20031;-86
2022/05/04 06:08:14;;;;;;;13.50;8.95;;;9.60;99.90;;;;;;4982571;28;20509;-86
2022/05/04 06:10:39;;;;;;;15.27;8.95;;;9.60;99.90;;;;;;4989144;28;20466;-86
2022/05/04 06:13:06;;;;;;;12.40;8.48;;;9.70;99.90;;;;;;4989996;28;20120;-86
2022/05/04 06:15:34;;;;;;;11.98;7.78;;;9.80;99.90;;;;;;4989258;28;20026;-86
2022/05/04 06:18:01;;;;;;;12.60;8.48;;;9.80;99.90;;;;;;4975581;28;20026;-86
2022/05/04 06:20:27;;;;;;;13.55;8.20;;;9.80;99.90;;;;;;4990192;28;20033;-86
2022/05/04 06:22:53;;;;;;;12.40;7.57;;;9.80;99.90;;;;;;4990034;28;20447;-86
2022/05/04 06:25:19;;;;;;;11.57;8.77;;;9.90;99.90;;;;;;5003096;28;20045;-86
2022/05/04 06:27:44;;;;;;;14.55;9.65;;;10.10;99.90;;;;;;4989270;28;20022;-86
2022/05/04 06:35:39;;;;;;;16.55;10.63;;;10.40;99.90;;;;;;4977357;28;20046;-86
2022/05/04 06:38:05;;;;;;;16.65;9.98;;;10.60;99.90;;;;;;5003978;28;20296;-86
2022/05/04 06:40:31;;;;;;;14.32;9.95;;;10.70;99.90;;;;;;4989114;28;20375;-86
2022/05/04 06:42:57;;;;;;;17.25;10.07;;;10.80;99.90;;;;;;4989822;28;20029;-86
2022/05/04 06:45:22;;;;;;;13.27;10.07;;;11.10;99.90;;;;;;4983555;28;20055;-87
2022/05/04 06:47:48;;;;;;;12.80;8.90;;;11.10;99.90;;;;;;4988866;28;20482;-87
2022/05/04 06:50:14;;;;;;;16.63;10.13;;;11.00;99.90;;;;;;4971859;28;20481;-87
2022/05/04 06:52:41;;;;;;;12.50;9.60;;;11.00;99.90;;;;;;4990274;28;20038;-87
2022/05/04 06:55:07;;;;;;;17.40;8.75;;;11.30;99.90;;;;;;4980966;28;20031;-86
2022/05/04 06:57:32;;;;;;;14.57;9.45;;;11.30;99.90;;;;;;4989749;28;20019;-87
2022/05/04 06:59:59;;;;;;;15.10;9.85;;;11.30;99.90;;;;;;5004897;28;20702;-87
2022/05/04 07:02:25;;;;;;;14.07;9.27;;;11.40;99.90;;;;;;4989368;28;20113;-87
2022/05/04 07:04:51;;;;;;;12.77;8.90;;;11.50;99.90;;;;;;4990213;28;20037;-87
2022/05/04 07:07:17;;;;;;;15.52;9.57;;;11.90;99.90;;;;;;4989846;28;20034;-87
2022/05/04 07:09:42;;;;;;;14.27;8.90;;;12.00;99.90;;;;;;4988695;28;20061;-87
2022/05/04 07:12:08;;;;;;;15.25;9.73;;;12.00;99.90;;;;;;4987158;28;20038;-87
2022/05/04 07:14:37;;;;;;;11.00;8.77;;;12.40;99.90;;;;;;4985536;28;20110;-87
2022/05/04 07:17:02;;;;;;;12.80;7.32;;;12.50;99.90;;;;;;4988538;28;20053;-87
2022/05/04 07:19:28;;;;;;;12.82;8.48;;;12.40;99.90;;;;;;4989086;28;20038;-87
2022/05/04 07:21:54;;;;;;;13.48;8.20;;;12.60;99.90;;;;;;4989380;28;20121;-87
2022/05/04 07:24:19;;;;;;;9.48;6.82;;;12.90;99.90;;;;;;4989124;28;20025;-87
2022/05/04 07:26:45;;;;;;;10.77;7.13;;;13.10;99.90;;;;;;4989248;28;20109;-87
2022/05/04 07:29:11;;;;;;;12.30;7.15;;;13.20;99.90;;;;;;4993360;28;20085;-87
2022/05/04 07:31:37;;;;;;;10.65;7.28;;;13.40;99.90;;;;;;4993131;28;20046;-87
2022/05/04 07:34:03;;;;;;;13.07;8.52;;;13.60;99.90;;;;;;4991378;28;20093;-87
2022/05/04 07:36:29;;;;;;;9.75;7.15;;;13.60;99.90;;;;;;5007484;28;20470;-88
2022/05/04 07:38:55;;;;;;;8.48;6.45;;;13.50;99.90;;;;;;4992979;28;20632;-87
2022/05/04 07:44:06;;;;;;;9.32;6.57;;;13.30;99.90;;;;;;4991467;28;20037;-87
2022/05/04 07:46:33;;;;;;;9.13;6.63;;;13.10;99.90;;;;;;4984700;28;20023;-87
2022/05/04 07:48:59;;;;;;;11.80;7.43;;;13.50;99.90;;;;;;4972556;28;20023;-87
2022/05/04 07:51:25;;;;;;;9.50;6.13;;;13.50;99.90;;;;;;5002005;28;20110;-87
2022/05/04 07:53:50;;;;;;;10.57;7.65;;;13.70;99.90;;;;;;4990480;28;20110;-87
2022/05/04 07:56:16;;;;;;;11.85;7.63;;;13.60;99.90;;;;;;4988801;28;20033;-87
2022/05/04 07:58:42;;;;;;;8.60;6.75;;;13.70;99.90;;;;;;4992049;28;20090;-87
2022/05/04 08:06:38;;;;;;;10.65;7.82;;;13.90;99.90;;;;;;4982760;28;20042;-86
2022/05/04 08:09:04;;;;;;;10.63;7.75;;;14.10;99.90;;;;;;4993205;28;20109;-87
2022/05/04 08:11:29;;;;;;;11.40;7.10;;;14.10;99.90;;;;;;4993456;28;20154;-87
2022/05/04 08:13:55;;;;;;;9.45;7.00;;;14.10;99.90;;;;;;4991380;28;20088;-87
2022/05/04 08:16:21;;;;;;;9.93;6.78;;;14.10;99.90;;;;;;4991687;28;20045;-87
2022/05/04 08:18:47;;;;;;;12.50;7.60;;;14.10;99.90;;;;;;4989403;28;20352;-87
2022/05/04 08:21:13;;;;;;;10.98;6.47;;;14.20;99.90;;;;;;4990411;28;20089;-88
2022/05/04 08:23:39;;;;;;;9.77;6.88;;;14.40;99.90;;;;;;4984581;28;20084;-86
2022/05/04 08:26:04;;;;;;;9.80;7.53;;;14.30;99.90;;;;;;4993808;28;20027;-86
2022/05/04 08:28:31;;;;;;;11.48;7.38;;;14.20;99.90;;;;;;5007848;28;20037;-87
2022/05/04 08:30:57;;;;;;;8.75;6.75;;;14.50;99.90;;;;;;4994337;28;20474;-87
2022/05/04 08:33:23;;;;;;;9.18;6.65;;;14.70;99.90;;;;;;4989600;28;20027;-87
2022/05/04 08:35:49;;;;;;;10.70;7.45;;;14.40;99.90;;;;;;5010371;28;20057;-87
2022/05/04 08:38:15;;;;;;;9.18;6.70;;;14.50;99.90;;;;;;4992672;28;20027;-87
2022/05/04 08:40:40;;;;;;;8.55;6.55;;;14.80;99.90;;;;;;4994626;28;20038;-87
2022/05/04 08:43:07;;;;;;;8.57;6.65;;;14.60;99.90;;;;;;5009183;28;20027;-87
2022/05/04 08:45:38;;;;;;;10.77;6.80;;;14.70;99.90;;;;;;4990869;28;20494;-86
2022/05/04 08:48:05;;;;;;;9.88;7.55;;;14.80;99.90;;;;;;4999262;28;20037;-86
2022/05/04 08:50:31;;;;;;;8.30;6.20;;;15.10;99.90;;;;;;5013900;28;20034;-85
2022/05/04 08:52:57;;;;;;;10.88;6.88;;;15.30;99.90;;;;;;4992585;28;20029;-87
2022/05/04 08:55:24;;;;;;;8.73;6.45;;;15.20;99.90;;;;;;4986472;28;20406;-87
2022/05/04 08:57:50;;;;;;;11.27;7.68;;;15.10;99.90;;;;;;4986509;28;20026;-87
2022/05/04 09:00:18;;;;;;;10.45;6.53;;;15.10;99.90;;;;;;4989896;28;20225;-86
2022/05/04 09:02:43;;;;;;;11.20;7.45;;;14.90;99.90;;;;;;5006442;28;20037;-86
2022/05/04 09:05:23;;;;;;;11.55;7.40;;;15.20;99.90;;;;;;5007152;28;20050;-86
2022/05/04 09:07:51;;;;;;;14.68;7.70;;;15.40;99.90;;;;;;4988310;28;20089;-86
2022/05/04 09:10:23;;;;;;;8.23;6.30;;;15.50;99.90;;;;;;5006086;28;20714;-86
2022/05/04 09:12:52;;;;;;;7.88;5.57;;;15.50;99.90;;;;;;4992752;28;20058;-86
2022/05/04 09:15:26;;;;;;;6.70;5.28;;;15.40;99.90;;;;;;4991464;28;20030;-87
2022/05/04 09:17:55;;;;;;;11.10;6.85;;;15.30;99.90;;;;;;4990808;28;20027;-85
2022/05/04 09:23:13;;;;;;;9.40;6.97;;;15.80;99.90;;;;;;4991531;28;20089;-86
2022/05/04 09:25:39;;;;;;;9.90;7.45;;;15.90;99.90;;;;;;4990389;28;20114;-86
2022/05/04 09:28:12;;;;;;;8.57;5.95;;;15.90;99.90;;;;;;4991132;28;20060;-86
2022/05/04 09:30:47;;;;;;;8.45;6.43;;;16.10;99.90;;;;;;4999447;28;20085;-86
2022/05/04 09:33:21;;;;;;;8.65;6.65;;;15.80;99.90;;;;;;4991034;28;20027;-86
2022/05/04 09:35:48;;;;;;;9.77;7.15;;;16.30;99.90;;;;;;4999428;28;20085;-85
2022/05/04 09:46:42;;;;;;;7.25;5.43;;;16.40;92.90;;;;;;4997136;28;20509;-88
2022/05/04 09:49:21;;;;;;;7.13;5.25;;;16.30;99.90;;;;;;4992655;28;20397;-90
2022/05/04 09:51:53;;;;;;;6.00;4.75;;;16.70;97.70;;;;;;5006505;28;20054;-90
2022/05/04 09:54:23;;;;;;;7.38;5.68;;;16.60;99.90;;;;;;4977918;28;20014;-89
2022/05/04 09:56:51;;;;;;;6.20;4.82;;;16.70;96.60;;;;;;4990859;28;20033;-90
2022/05/04 09:59:18;;;;;;;6.53;5.80;;;17.20;99.90;;;;;;4992088;28;20042;-89
2022/05/04 10:01:44;;;;;;;7.30;5.57;;;17.60;98.90;;;;;;4994134;28;20066;-89
2022/05/04 10:04:10;;;;;;;7.53;6.15;;;17.70;95.20;;;;;;4991307;28;20482;-90
2022/05/04 10:06:36;;;;;;;6.75;5.82;;;17.90;88.60;;;;;;4992019;28;20081;-90
2022/05/04 10:09:04;;;;;;;7.88;6.30;;;18.40;80.20;;;;;;4991713;28;20110;-88
2022/05/04 10:11:34;;;;;;;8.68;5.72;;;18.90;91.20;;;;;;4990721;28;20060;-88
2022/05/04 10:14:07;;;;;;;8.13;5.87;;;18.80;69.50;;;;;;5000186;28;20030;-89
2022/05/04 10:16:53;;;;;;;7.10;5.53;;;19.10;73.50;;;;;;4988539;28;20041;-89
2022/05/04 10:19:33;;;;;;;9.68;5.10;;;19.60;72.20;;;;;;4989394;28;20073;-88
2022/05/04 10:22:00;;;;;;;5.70;4.90;;;19.80;67.80;;;;;;4989416;28;20050;-88
2022/05/04 10:24:29;;;;;;;5.90;4.53;;;20.70;63.70;;;;;;4989594;28;20022;-89
2022/05/04 10:27:14;;;;;;;8.13;6.00;;;20.90;53.10;;;;;;4986919;28;20037;-89
2022/05/04 10:32:38;;;;;;;6.10;5.28;;;21.00;58.90;;;;;;4984720;28;20041;-90
2022/05/04 10:35:44;;;;;;;6.13;4.85;;;21.40;55.30;;;;;;5004871;28;20038;-90
2022/05/04 10:38:14;;;;;;;8.50;5.75;;;21.20;53.00;;;;;;4982875;28;20073;-89
2022/05/04 10:40:53;;;;;;;5.55;4.82;;;20.30;56.00;;;;;;4989654;28;20037;-89
2022/05/04 10:43:41;;;;;;;6.95;5.53;;;20.30;58.20;;;;;;4993648;28;20026;-88
2022/05/04 10:46:18;;;;;;;6.55;5.85;;;21.50;59.80;;;;;;4983701;28;20078;-89
2022/05/04 10:48:56;;;;;;;6.20;5.30;;;21.90;54.00;;;;;;4985600;28;20058;-88
2022/05/04 10:51:24;;;;;;;6.75;5.28;;;21.70;58.50;;;;;;4969180;28;20031;-88
2022/05/04 10:53:53;;;;;;;6.70;5.20;;;21.00;52.10;;;;;;4969457;28;20117;-88
2022/05/04 10:56:21;;;;;;;6.60;5.18;;;20.80;52.00;;;;;;4978024;28;20568;-88
2022/05/04 10:58:57;;;;;;;8.23;5.10;;;20.20;54.10;;;;;;4981409;28;20026;-88
2022/05/04 11:01:23;;;;;;;6.07;4.95;;;20.10;54.00;;;;;;4989163;28;20093;-88
2022/05/04 11:03:57;;;;;;;7.15;5.15;;;19.80;55.50;;;;;;4991999;28;20041;-88
2022/05/04 11:06:31;;;;;;;6.05;4.38;;;20.00;57.60;;;;;;4987450;28;20093;-88
2022/05/04 11:08:59;;;;;;;6.10;5.05;;;20.00;56.70;;;;;;4986802;28;20030;-88
2022/05/04 11:11:26;;;;;;;6.00;5.15;;;20.50;56.50;;;;;;5008248;28;20033;-87
2022/05/04 11:13:53;;;;;;;5.65;4.78;;;21.20;56.50;;;;;;4993099;28;20485;-89
2022/05/04 11:16:23;;;;;;;6.82;4.85;;;21.00;57.00;;;;;;4993626;28;20030;-88
2022/05/04 11:18:48;;;;;;;6.07;4.85;;;21.10;51.60;;;;;;4992777;28;20097;-90
2022/05/04 11:21:15;;;;;;;5.85;4.53;;;21.10;55.20;;;;;;5006319;28;20493;-90
2022/05/04 11:23:50;;;;;;;6.78;4.40;;;21.80;55.20;;;;;;4996844;28;20451;-90
2022/05/04 11:26:17;;;;;;;7.50;4.90;;;23.30;51.10;;;;;;4995623;28;20038;-90
2022/05/04 11:28:43;;;;;;;5.40;4.80;;;24.10;42.70;;;;;;4995819;28;20026;-89
2022/05/04 11:31:10;;;;;;;2.60;2.40;;;23.90;43.40;;;;;;4975012;28;20546;-90
2022/05/04 11:33:36;;;;;;;3.20;2.40;;;24.50;40.20;;;;;;5006781;28;20050;-90
2022/05/04 11:36:02;;;;;;;4.70;2.70;;;24.00;39.40;;;;;;4993294;28;20022;-89
2022/05/04 11:38:27;;;;;;;4.53;2.60;;;23.00;44.40;;;;;;5008953;28;20482;-90
2022/05/04 11:40:54;;;;;;;2.67;2.33;;;21.10;47.60;;;;;;4994435;28;20069;-89
2022/05/04 11:43:27;;;;;;;2.17;2.05;;;19.80;48.00;;;;;;5009526;28;20045;-87
2022/05/04 11:45:55;;;;;;;4.25;2.65;;;18.90;51.10;;;;;;4993131;28;20061;-87
2022/05/04 11:48:21;;;;;;;4.88;2.42;;;18.10;54.90;;;;;;4992873;28;20026;-82
2022/05/04 11:50:48;;;;;;;3.22;2.53;;;17.60;57.20;;;;;;4991797;28;20038;-84
2022/05/04 11:53:14;;;;;;;2.63;1.83;;;17.50;58.20;;;;;;4992475;28;20041;-83
2022/05/04 11:55:41;;;;;;;2.58;1.95;;;17.40;60.40;;;;;;4995737;28;20121;-84
2022/05/04 11:58:09;;;;;;;3.67;2.30;;;17.20;65.80;;;;;;4991950;28;20057;-84
2022/05/04 12:00:35;;;;;;;3.55;2.42;;;16.60;72.10;;;;;;4992752;28;20077;-84
2022/05/04 12:03:05;;;;;;;4.13;2.38;;;16.30;80.80;;;;;;4995928;28;20154;-83
2022/05/04 12:05:33;;;;;;;3.13;2.38;;;16.20;93.00;;;;;;4994271;28;20085;-84
2022/05/04 12:08:00;;;;;;;3.70;2.35;;;16.20;95.60;;;;;;4990107;28;20500;-83
2022/05/04 12:10:26;;;;;;;4.45;2.28;;;16.00;94.30;;;;;;4994484;28;20027;-83
2022/05/04 12:12:53;;;;;;;4.35;2.65;;;15.90;97.70;;;;;;4995278;28;20549;-86
2022/05/04 12:15:22;;;;;;;3.90;2.55;;;15.80;96.00;;;;;;4996065;28;20030;-86
2022/05/04 12:17:49;;;;;;;3.67;2.30;;;15.70;95.80;;;;;;5011318;28;20026;-86
2022/05/04 12:20:19;;;;;;;4.07;2.80;;;15.50;95.10;;;;;;4995169;28;20389;-86
2022/05/04 12:22:45;;;;;;;4.93;2.80;;;15.40;97.10;;;;;;4995107;28;20041;-86
2022/05/04 12:25:11;;;;;;;6.32;3.78;;;15.40;97.80;;;;;;4995753;28;20584;-85
2022/05/04 12:27:38;;;;;;;12.25;3.20;;;15.10;99.90;;;;;;5011027;28;20064;-86
2022/05/04 12:35:35;;;;;;;6.97;4.20;;;13.00;99.90;;;;;;4996737;28;20069;-86
2022/05/04 12:38:03;;;;;;;6.90;3.92;;;13.00;99.90;;;;;;5012304;28;20455;-85
2022/05/04 12:40:31;;;;;;;5.22;4.07;;;12.90;99.90;;;;;;4997148;28;20031;-85
2022/05/04 12:42:57;;;;;;;7.45;3.97;;;13.00;99.90;;;;;;4996594;28;20026;-85
2022/05/04 12:45:27;;;;;;;7.53;5.00;;;12.90;99.90;;;;;;4996754;28;20047;-86
2022/05/04 12:47:57;;;;;;;6.53;4.88;;;12.80;99.90;;;;;;4996523;28;20470;-86
2022/05/04 12:50:26;;;;;;;6.57;3.95;;;12.60;99.90;;;;;;4996657;28;20035;-84
2022/05/04 12:52:53;;;;;;;7.43;4.30;;;12.40;99.90;;;;;;5011786;28;20121;-85
2022/05/04 12:55:19;;;;;;;8.52;3.90;;;12.40;99.90;;;;;;5011770;28;20034;-86
2022/05/04 12:57:45;;;;;;;8.20;3.75;;;12.30;99.90;;;;;;4994820;28;20117;-85
2022/05/04 13:00:13;;;;;;;7.75;3.88;;;12.00;99.90;;;;;;4994596;28;20156;-84
2022/05/04 13:02:45;;;;;;;8.15;5.18;;;12.30;99.90;;;;;;5001926;28;20142;-85
2022/05/04 13:05:10;;;;;;;8.30;5.13;;;13.00;99.90;;;;;;4992028;28;20022;-86
2022/05/04 13:07:37;;;;;;;7.78;5.05;;;14.40;99.90;;;;;;5005049;28;20061;-86
2022/05/04 13:10:06;;;;;;;5.28;3.78;;;15.30;99.90;;;;;;5010846;28;20038;-86
2022/05/04 13:12:31;;;;;;;7.72;4.68;;;14.80;99.90;;;;;;4995859;28;20045;-86
2022/05/04 13:14:58;;;;;;;7.28;4.47;;;14.00;99.90;;;;;;4994780;28;20031;-86
2022/05/04 13:17:24;;;;;;;5.45;3.53;;;13.70;99.90;;;;;;4993739;28;20030;-86
2022/05/04 13:19:49;;;;;;;6.38;3.72;;;14.10;99.90;;;;;;4993162;28;20658;-86
2022/05/04 13:22:15;;;;;;;4.10;3.45;;;14.50;99.90;;;;;;5008735;28;20058;-87
2022/05/04 13:24:41;;;;;;;4.97;3.55;;;14.70;99.90;;;;;;5007637;28;20041;-87
2022/05/04 13:27:06;;;;;;;5.97;3.90;;;14.70;99.90;;;;;;4993002;28;20046;-86
2022/05/04 13:29:32;;;;;;;4.85;3.45;;;16.00;99.90;;;;;;5008747;28;20030;-86